Terminal Aerodrome Forecast
Issued by NWS

Home | Current Version | Previous Version | Text Only | Print | Product List | Glossary On
Versions: 1 2 3 4 5 6 7 8 9 10 11 12 13
000
FTUS42 KMLB 281700
TAFISM
TAF
KISM 281730Z 2818/2918 20003KT P6SM FEW025 BKN250
     FM290000 18003KT P6SM FEW030 BKN250
     FM290700 00000KT 2SM BR OVC006
      TEMPO 2908/2912 1/2SM FG VV002
     FM291400 23005KT P6SM OVC010=

USA.gov is the U.S. government's official web portal to all federal, state and local government web resources and services.